createdAt,value
2019-02-08T00:02:17.921Z,4.17
2019-02-08T00:04:44.353Z,4.87
2019-02-08T00:07:11.150Z,4.65
2019-02-08T00:09:37.444Z,3.45
2019-02-08T00:12:03.860Z,7.28
2019-02-08T00:14:30.178Z,3.98
2019-02-08T00:16:56.814Z,4.83
2019-02-08T00:19:23.237Z,3.35
2019-02-08T00:21:49.529Z,3.55
2019-02-08T00:24:16.060Z,5.30
2019-02-08T00:26:42.678Z,6.03
2019-02-08T00:29:08.993Z,2.85
2019-02-08T00:31:35.295Z,3.65
2019-02-08T00:34:01.575Z,3.08
2019-02-08T00:36:27.876Z,4.58
2019-02-08T00:38:54.158Z,2.50
2019-02-08T00:41:20.489Z,5.08
2019-02-08T00:43:46.887Z,2.60
2019-02-08T00:46:13.165Z,2.40
2019-02-08T00:48:40.173Z,4.40
2019-02-08T00:51:06.495Z,2.67
2019-02-08T00:53:33.651Z,3.10
2019-02-08T00:56:00.295Z,3.65
2019-02-08T00:58:26.604Z,3.98
2019-02-08T01:00:52.999Z,2.60
2019-02-08T01:03:19.293Z,3.37
2019-02-08T01:05:45.572Z,2.85
2019-02-08T01:08:12.006Z,3.85
2019-02-08T01:10:39.005Z,3.17
2019-02-08T01:13:05.310Z,3.12
2019-02-08T01:15:32.270Z,2.85
2019-02-08T01:17:58.556Z,4.47
2019-02-08T01:20:24.965Z,2.62
2019-02-08T01:22:51.453Z,3.10
2019-02-08T01:25:19.968Z,3.77
2019-02-08T01:27:46.489Z,2.52
2019-02-08T01:30:18.002Z,3.50
2019-02-08T01:32:44.301Z,3.85
2019-02-08T01:35:12.324Z,6.92
2019-02-08T01:37:38.625Z,4.95
2019-02-08T01:40:17.037Z,3.62
2019-02-08T01:42:43.544Z,5.03
2019-02-08T01:45:13.649Z,3.45
2019-02-08T01:47:39.943Z,3.35
2019-02-08T01:50:10.040Z,6.08
2019-02-08T01:52:36.582Z,3.67
2019-02-08T01:55:05.177Z,5.08
2019-02-08T01:57:31.470Z,2.87
2019-02-08T01:59:57.780Z,8.35
2019-02-08T02:02:24.278Z,3.62
2019-02-08T02:04:51.108Z,3.27
2019-02-08T02:07:17.759Z,5.08
2019-02-08T02:09:44.108Z,2.60
2019-02-08T02:12:10.420Z,3.75
2019-02-08T02:14:36.725Z,3.58
2019-02-08T02:17:03.270Z,3.98
2019-02-08T02:19:29.556Z,2.05
2019-02-08T02:21:56.173Z,5.47
2019-02-08T02:24:22.490Z,3.60
2019-02-08T02:26:48.895Z,2.70
2019-02-08T02:29:15.197Z,3.52
2019-02-08T02:31:41.683Z,2.87
2019-02-08T02:34:08.202Z,3.70
2019-02-08T02:36:34.494Z,2.95
2019-02-08T02:39:01.100Z,4.25
2019-02-08T02:41:27.423Z,5.10
2019-02-08T02:43:53.823Z,3.72
2019-02-08T02:46:20.113Z,2.58
2019-02-08T02:48:46.423Z,2.55
2019-02-08T02:51:13.026Z,2.80
2019-02-08T02:53:39.460Z,4.25
2019-02-08T02:56:05.749Z,4.35
2019-02-08T02:58:32.042Z,2.37
2019-02-08T03:00:58.563Z,6.47
2019-02-08T03:03:24.954Z,3.40
2019-02-08T03:05:51.273Z,2.98
2019-02-08T03:08:17.569Z,2.70
2019-02-08T03:10:43.991Z,3.40
2019-02-08T03:13:10.284Z,4.53
2019-02-08T03:15:36.588Z,2.90
2019-02-08T03:18:04.037Z,3.10
2019-02-08T03:20:30.341Z,4.00
2019-02-08T03:22:56.637Z,3.42
2019-02-08T03:25:25.789Z,3.65
2019-02-08T03:27:52.580Z,2.77
2019-02-08T03:30:36.705Z,2.33
2019-02-08T03:33:03.709Z,2.30
2019-02-08T03:35:30.192Z,2.20
2019-02-08T03:37:56.559Z,2.52
2019-02-08T03:40:25.208Z,2.52
2019-02-08T03:42:51.524Z,3.42
2019-02-08T03:45:18.216Z,4.58
2019-02-08T03:47:44.556Z,3.65
2019-02-08T03:50:13.534Z,2.10
2019-02-08T03:52:40.149Z,4.28
2019-02-08T03:55:09.870Z,4.37
2019-02-08T03:57:36.157Z,3.00
2019-02-08T04:00:12.238Z,2.67
2019-02-08T04:02:38.643Z,1.85
2019-02-08T04:05:04.922Z,5.00
2019-02-08T04:07:31.229Z,3.17
2019-02-08T04:09:57.737Z,4.12
2019-02-08T04:12:24.069Z,7.15
2019-02-08T04:14:50.365Z,12.55
2019-02-08T04:17:16.657Z,5.03
2019-02-08T04:19:42.987Z,11.38
2019-02-08T04:22:09.496Z,24.25
2019-02-08T04:24:36.533Z,12.82
2019-02-08T04:27:02.955Z,14.87
2019-02-08T04:33:00.226Z,14.60
2019-02-08T04:35:26.869Z,10.72
2019-02-08T04:37:53.553Z,5.28
2019-02-08T04:40:21.695Z,9.18
2019-02-08T04:42:48.332Z,6.20
2019-02-08T04:45:14.996Z,4.95
2019-02-08T04:47:41.625Z,7.17
2019-02-08T04:50:13.379Z,5.05
2019-02-08T04:52:40.018Z,7.25
2019-02-08T04:55:08.756Z,5.70
2019-02-08T04:57:35.600Z,3.83
2019-02-08T05:00:03.986Z,9.80
2019-02-08T05:02:33.661Z,2.75
2019-02-08T05:05:00.302Z,6.00
2019-02-08T05:07:26.954Z,3.98
2019-02-08T05:09:53.622Z,3.95
2019-02-08T05:12:20.260Z,4.80
2019-02-08T05:14:46.938Z,2.90
2019-02-08T05:17:13.579Z,3.08
2019-02-08T05:19:40.238Z,2.10
2019-02-08T05:22:06.898Z,3.87
2019-02-08T05:24:33.569Z,3.00
2019-02-08T05:27:00.238Z,7.37
2019-02-08T05:29:26.878Z,3.62
2019-02-08T05:31:53.549Z,3.77
2019-02-08T05:34:20.518Z,4.20
2019-02-08T05:36:47.425Z,4.50
2019-02-08T05:39:14.050Z,2.30
2019-02-08T05:41:40.701Z,6.70
2019-02-08T05:44:07.394Z,3.67
2019-02-08T05:46:34.029Z,3.15
2019-02-08T05:49:00.669Z,2.75
2019-02-08T05:51:27.360Z,2.05
2019-02-08T05:53:54.218Z,5.22
2019-02-08T05:56:20.878Z,5.62
2019-02-08T05:58:47.514Z,5.37
2019-02-08T06:01:14.170Z,10.40
2019-02-08T06:03:40.832Z,5.92
2019-02-08T06:06:07.486Z,3.08
2019-02-08T06:08:34.258Z,3.95
2019-02-08T06:11:01.182Z,4.12
2019-02-08T06:13:27.830Z,6.78
2019-02-08T06:15:54.486Z,5.00
2019-02-08T06:18:21.114Z,4.25
2019-02-08T06:20:48.934Z,3.12
2019-02-08T06:23:15.569Z,4.08
2019-02-08T06:25:42.266Z,6.28
2019-02-08T06:28:08.946Z,4.15
2019-02-08T06:30:35.582Z,1.85
2019-02-08T06:33:02.282Z,2.70
2019-02-08T06:35:29.097Z,2.90
2019-02-08T06:37:55.854Z,2.95
2019-02-08T06:40:35.105Z,4.65
2019-02-08T06:43:01.746Z,2.80
2019-02-08T06:45:28.465Z,2.85
2019-02-08T06:47:55.105Z,2.10
2019-02-08T06:50:23.832Z,3.47
2019-02-08T06:52:50.522Z,1.57
2019-02-08T06:55:17.170Z,2.22
2019-02-08T06:57:45.667Z,2.60
2019-02-08T07:00:17.529Z,2.10
2019-02-08T07:02:49.025Z,3.27
2019-02-08T07:05:36.557Z,2.60
2019-02-08T07:08:11.942Z,3.00
2019-02-08T07:10:44.016Z,1.90
2019-02-08T07:13:15.004Z,2.40
2019-02-08T07:15:58.503Z,2.05
2019-02-08T07:18:29.869Z,1.77
2019-02-08T07:21:14.556Z,20.62
2019-02-08T07:23:51.914Z,19.92
2019-02-08T07:26:26.506Z,28.23
2019-02-08T07:28:57.826Z,14.15
2019-02-08T07:31:35.374Z,15.85
2019-02-08T07:34:06.389Z,17.55
2019-02-08T07:36:37.593Z,10.70
2019-02-08T07:39:11.618Z,10.13
2019-02-08T07:41:40.327Z,7.35
2019-02-08T07:44:14.814Z,9.38
2019-02-08T07:46:43.554Z,11.88
2019-02-08T07:49:14.933Z,4.85
2019-02-08T07:51:43.396Z,6.83
2019-02-08T07:54:20.617Z,8.20
2019-02-08T07:56:49.098Z,6.72
2019-02-08T07:59:23.170Z,5.35
2019-02-08T08:01:57.392Z,8.20
2019-02-08T08:04:32.610Z,5.00
2019-02-08T08:07:01.093Z,5.72
2019-02-08T08:09:32.493Z,4.72
2019-02-08T08:12:19.188Z,4.47
2019-02-08T08:14:56.899Z,5.75
2019-02-08T08:17:28.339Z,5.35
2019-02-08T08:20:02.506Z,3.90
2019-02-08T08:22:39.934Z,6.10
2019-02-08T08:25:19.019Z,5.45
2019-02-08T08:28:05.795Z,7.17
2019-02-08T08:30:34.206Z,6.70
2019-02-08T08:33:14.893Z,5.10
2019-02-08T08:36:15.427Z,5.97
2019-02-08T08:39:02.171Z,8.20
2019-02-08T08:41:55.005Z,10.90
2019-02-08T08:44:34.368Z,5.45
2019-02-08T08:47:19.754Z,8.03
2019-02-08T08:49:55.926Z,5.60
2019-02-08T08:52:35.151Z,5.05
2019-02-08T08:55:26.038Z,6.12
2019-02-08T08:58:28.271Z,6.80
2019-02-08T09:01:07.493Z,10.43
2019-02-08T09:03:45.870Z,5.72
2019-02-08T09:06:21.694Z,4.12
2019-02-08T09:09:08.351Z,7.60
2019-02-08T09:11:41.612Z,5.35
2019-02-08T09:14:26.998Z,4.53
2019-02-08T09:17:25.884Z,4.85
2019-02-08T09:20:15.758Z,3.45
2019-02-08T09:23:07.291Z,18.60
2019-02-08T09:26:10.627Z,11.85
2019-02-08T09:28:46.106Z,6.28
2019-02-08T09:31:40.511Z,8.65
2019-02-08T09:34:28.530Z,17.07
2019-02-08T09:37:07.581Z,12.73
2019-02-08T09:39:55.620Z,11.70
2019-02-08T09:42:51.726Z,8.98
2019-02-08T09:45:22.076Z,8.85
2019-02-08T09:48:09.073Z,6.83
2019-02-08T09:50:45.085Z,7.90
2019-02-08T09:53:20.958Z,5.75
2019-02-08T09:56:00.226Z,5.65
2019-02-08T09:58:47.259Z,5.95
2019-02-08T10:01:51.090Z,4.05
2019-02-08T10:04:40.906Z,5.42
2019-02-08T10:07:28.621Z,4.12
2019-02-08T10:09:58.858Z,7.90
2019-02-08T10:12:47.041Z,7.60
2019-02-08T10:15:29.005Z,6.58
2019-02-08T10:18:20.417Z,4.20
2019-02-08T10:21:10.133Z,5.05
2019-02-08T10:24:00.175Z,6.00
2019-02-08T10:26:45.346Z,10.03
2019-02-08T10:29:24.386Z,4.50
2019-02-08T10:32:20.069Z,4.40
2019-02-08T10:34:59.075Z,7.85
2019-02-08T10:37:52.131Z,3.75
2019-02-08T10:40:57.054Z,4.00
2019-02-08T10:43:30.471Z,5.05
2019-02-08T10:46:06.646Z,6.95
2019-02-08T10:49:10.709Z,5.50
2019-02-08T10:51:58.947Z,6.33
2019-02-08T10:54:51.653Z,9.25
2019-02-08T10:57:55.305Z,13.13
2019-02-08T11:00:42.771Z,38.85
2019-02-08T11:03:29.638Z,28.70
2019-02-08T11:06:31.910Z,28.77
2019-02-08T11:09:30.844Z,27.45
2019-02-08T11:12:10.042Z,19.20
2019-02-08T11:14:57.806Z,10.58
2019-02-08T11:17:37.313Z,18.07
2019-02-08T11:20:06.059Z,19.95
2019-02-08T11:22:32.889Z,11.48
2019-02-08T11:24:59.581Z,14.93
2019-02-08T11:27:26.301Z,10.43
2019-02-08T11:29:52.936Z,6.70
2019-02-08T11:32:19.594Z,7.12
2019-02-08T11:34:46.234Z,5.22
2019-02-08T11:37:12.925Z,5.83
2019-02-08T11:39:39.562Z,7.95
2019-02-08T11:42:06.201Z,5.05
2019-02-08T11:44:32.862Z,6.10
2019-02-08T11:46:59.501Z,5.55
2019-02-08T11:49:26.173Z,3.95
2019-02-08T11:51:52.813Z,6.80
2019-02-08T11:54:19.466Z,3.50
2019-02-08T11:56:46.150Z,3.87
2019-02-08T11:59:12.785Z,4.42
2019-02-08T12:01:41.224Z,4.53
2019-02-08T12:04:07.909Z,3.87
2019-02-08T12:06:36.245Z,4.53
2019-02-08T12:09:11.189Z,3.92
2019-02-08T12:11:38.226Z,4.92
2019-02-08T12:14:04.910Z,2.55
2019-02-08T12:16:31.559Z,3.58
2019-02-08T12:18:58.198Z,3.80
2019-02-08T12:21:24.890Z,22.75
2019-02-08T12:23:51.533Z,18.45
2019-02-08T12:26:18.201Z,9.35
2019-02-08T12:28:44.929Z,12.68
2019-02-08T12:31:11.567Z,12.37
2019-02-08T12:33:38.290Z,10.63
2019-02-08T12:36:04.922Z,12.93
2019-02-08T12:38:31.654Z,9.55
2019-02-08T12:40:58.329Z,12.80
2019-02-08T12:43:24.983Z,13.20
2019-02-08T12:45:51.666Z,6.22
2019-02-08T12:48:18.406Z,8.98
2019-02-08T12:50:45.052Z,6.20
2019-02-08T12:53:12.037Z,5.12
2019-02-08T12:55:38.676Z,4.55
2019-02-08T12:58:05.344Z,6.72
2019-02-08T13:00:32.079Z,4.30
2019-02-08T13:02:58.714Z,3.12
2019-02-08T13:05:25.385Z,6.75
2019-02-08T13:07:52.195Z,5.22
2019-02-08T13:10:27.654Z,1.57
2019-02-08T13:12:54.289Z,2.20
2019-02-08T13:15:21.107Z,3.87
2019-02-08T13:17:47.790Z,1.87
2019-02-08T13:20:18.380Z,1.82
2019-02-08T13:22:45.261Z,0.95
2019-02-08T13:25:11.911Z,1.17
2019-02-08T13:27:38.709Z,1.55
2019-02-08T13:30:29.435Z,1.80
2019-02-08T13:32:56.096Z,1.92
2019-02-08T13:35:22.738Z,1.98
2019-02-08T13:37:50.378Z,2.65
2019-02-08T13:40:19.303Z,2.52
2019-02-08T13:42:46.129Z,2.27
2019-02-08T13:45:12.879Z,2.15
2019-02-08T13:47:39.531Z,2.67
2019-02-08T13:50:15.906Z,2.35
2019-02-08T13:52:42.595Z,2.25
2019-02-08T13:55:12.826Z,2.70
2019-02-08T13:57:39.512Z,1.65
2019-02-08T14:00:12.777Z,4.10
2019-02-08T14:02:39.425Z,2.45
2019-02-08T14:05:07.494Z,2.75
2019-02-08T14:07:34.153Z,1.72
2019-02-08T14:10:00.813Z,5.03
2019-02-08T14:12:27.490Z,3.67
2019-02-08T14:14:54.125Z,2.75
2019-02-08T14:17:21.328Z,2.98
2019-02-08T14:19:48.870Z,3.90
2019-02-08T14:22:15.517Z,2.30
2019-02-08T14:24:42.602Z,2.77
2019-02-08T14:27:09.381Z,1.25
2019-02-08T14:29:36.081Z,2.98
2019-02-08T14:32:02.772Z,3.00
2019-02-08T14:34:29.410Z,2.25
2019-02-08T14:36:56.083Z,1.05
2019-02-08T14:39:22.729Z,3.60
2019-02-08T14:41:49.431Z,2.22
2019-02-08T14:44:16.072Z,2.98
2019-02-08T14:46:42.727Z,3.10
2019-02-08T14:49:09.403Z,3.60
2019-02-08T14:51:36.056Z,5.28
2019-02-08T14:54:02.742Z,2.05
2019-02-08T14:56:30.780Z,3.55
2019-02-08T14:58:57.896Z,3.25
2019-02-08T15:01:24.741Z,2.22
2019-02-08T15:03:51.362Z,3.10
2019-02-08T15:06:18.050Z,4.10
2019-02-08T15:08:44.750Z,2.33
2019-02-08T15:11:11.389Z,3.33
2019-02-08T15:13:39.550Z,2.80
2019-02-08T15:16:06.559Z,3.00
2019-02-08T15:18:33.287Z,4.87
2019-02-08T15:21:00.092Z,2.10
2019-02-08T15:23:26.726Z,7.03
2019-02-08T15:25:53.363Z,2.67
2019-02-08T15:28:20.402Z,3.37
2019-02-08T15:30:47.071Z,4.22
2019-02-08T15:33:13.713Z,3.55
2019-02-08T15:35:40.387Z,2.42
2019-02-08T15:38:07.074Z,3.15
2019-02-08T15:40:42.838Z,3.72
2019-02-08T15:43:11.017Z,2.33
2019-02-08T15:45:38.768Z,2.10
2019-02-08T15:48:05.409Z,2.22
2019-02-08T15:50:32.344Z,1.37
2019-02-08T15:52:58.997Z,2.92
2019-02-08T15:55:41.342Z,10.32
2019-02-08T15:58:07.977Z,8.43
2019-02-08T16:00:35.250Z,5.45
2019-02-08T16:03:01.915Z,64.87
2019-02-08T16:05:30.151Z,31.35
2019-02-08T16:07:56.829Z,26.27
2019-02-08T16:10:23.507Z,24.23
2019-02-08T16:12:50.133Z,15.88
2019-02-08T16:15:22.267Z,11.35
2019-02-08T16:17:49.219Z,15.25
2019-02-08T16:20:18.054Z,9.40
2019-02-08T16:22:44.695Z,8.48
2019-02-08T16:25:14.677Z,7.33
2019-02-08T16:27:41.396Z,3.62
2019-02-08T16:30:14.693Z,7.80
2019-02-08T16:32:41.411Z,9.53
2019-02-08T16:35:09.731Z,11.20
2019-02-08T16:37:36.402Z,7.85
2019-02-08T16:40:09.338Z,13.70
2019-02-08T16:42:36.278Z,14.05
2019-02-08T16:45:09.822Z,9.55
2019-02-08T16:47:36.464Z,8.75
2019-02-08T16:50:09.301Z,9.13
2019-02-08T16:52:35.942Z,7.97
2019-02-08T16:55:05.581Z,8.20
2019-02-08T16:57:32.251Z,8.85
2019-02-08T16:59:58.913Z,8.25
2019-02-08T17:02:25.551Z,3.42
2019-02-08T17:04:52.205Z,5.58
2019-02-08T17:07:19.141Z,3.08
2019-02-08T17:09:45.834Z,5.03
2019-02-08T17:12:12.475Z,6.25
2019-02-08T17:14:39.118Z,2.47
2019-02-08T17:17:05.754Z,4.37
2019-02-08T17:19:32.388Z,2.85
2019-02-08T17:21:59.075Z,2.27
2019-02-08T17:24:25.833Z,3.55
2019-02-08T17:26:52.477Z,4.47
2019-02-08T17:29:19.136Z,2.17
2019-02-08T17:31:46.029Z,3.25
2019-02-08T17:34:12.874Z,2.02
2019-02-08T17:36:39.513Z,3.40
2019-02-08T17:39:06.147Z,2.42
2019-02-08T17:41:33.092Z,1.77
2019-02-08T17:43:59.751Z,3.05
2019-02-08T17:46:26.390Z,3.05
2019-02-08T17:48:53.039Z,1.80
2019-02-08T17:51:19.682Z,2.42
2019-02-08T17:53:46.323Z,2.52
2019-02-08T17:56:12.999Z,3.15
2019-02-08T17:58:39.640Z,5.87
2019-02-08T18:01:06.283Z,5.75
2019-02-08T18:03:39.931Z,5.70
2019-02-08T18:06:13.381Z,4.08
2019-02-08T18:08:40.055Z,5.70
2019-02-08T18:11:06.697Z,4.45
2019-02-08T18:13:33.342Z,7.33
2019-02-08T18:16:00.005Z,9.83
2019-02-08T18:18:26.790Z,6.17
2019-02-08T18:20:59.376Z,3.20
2019-02-08T18:23:28.159Z,3.87
2019-02-08T18:25:55.002Z,10.10
2019-02-08T18:28:21.697Z,10.55
2019-02-08T18:30:49.341Z,5.97
2019-02-08T18:33:16.013Z,4.35
2019-02-08T18:35:43.749Z,9.00
2019-02-08T18:38:10.447Z,5.53
2019-02-08T18:40:37.285Z,9.18
2019-02-08T18:43:04.129Z,5.65
2019-02-08T18:45:32.702Z,6.50
2019-02-08T18:48:00.502Z,3.17
2019-02-08T18:50:32.844Z,5.03
2019-02-08T18:52:59.933Z,4.97
2019-02-08T18:55:26.574Z,5.65
2019-02-08T18:57:53.255Z,5.33
2019-02-08T19:00:30.974Z,6.70
2019-02-08T19:02:57.755Z,4.50
2019-02-08T19:05:24.781Z,4.53
2019-02-08T19:07:51.401Z,3.17
2019-02-08T19:10:20.781Z,5.15
2019-02-08T19:12:48.455Z,5.75
2019-02-08T19:15:17.234Z,3.25
2019-02-08T19:17:44.137Z,4.70
2019-02-08T19:20:22.602Z,3.00
2019-02-08T19:22:49.243Z,3.65
2019-02-08T19:25:18.375Z,3.10
2019-02-08T19:27:45.039Z,4.12
2019-02-08T19:30:25.190Z,6.42
2019-02-08T19:32:51.858Z,6.50
2019-02-08T19:35:18.666Z,3.62
2019-02-08T19:37:45.305Z,4.50
2019-02-08T19:40:29.858Z,5.12
2019-02-08T19:42:56.700Z,14.05
2019-02-08T19:45:23.698Z,5.60
2019-02-08T19:47:50.338Z,4.53
2019-02-08T19:50:28.922Z,5.05
2019-02-08T19:52:55.577Z,3.25
2019-02-08T19:55:22.227Z,7.92
2019-02-08T19:57:48.955Z,4.70
2019-02-08T20:00:26.709Z,4.30
2019-02-08T20:02:53.411Z,4.95
2019-02-08T20:05:22.745Z,5.58
2019-02-08T20:07:49.674Z,5.40
2019-02-08T20:10:31.573Z,5.05
2019-02-08T20:12:58.214Z,4.10
2019-02-08T20:15:24.931Z,6.40
2019-02-08T20:17:51.573Z,5.37
2019-02-08T20:20:18.211Z,6.55
2019-02-08T20:22:45.042Z,4.85
2019-02-08T20:25:26.815Z,6.33
2019-02-08T20:27:53.525Z,2.83
2019-02-08T20:30:22.136Z,4.53
2019-02-08T20:32:48.794Z,4.80
2019-02-08T20:35:23.723Z,4.30
2019-02-08T20:37:53.941Z,5.80
2019-02-08T20:40:32.638Z,4.90
2019-02-08T20:42:59.277Z,3.83
2019-02-08T20:45:31.097Z,9.38
2019-02-08T20:47:59.640Z,8.13
2019-02-08T20:50:26.281Z,9.25
2019-02-08T20:52:52.932Z,3.02
2019-02-08T20:55:20.899Z,2.92
2019-02-08T20:57:47.632Z,3.95
2019-02-08T21:00:22.309Z,2.90
2019-02-08T21:02:49.204Z,4.28
2019-02-08T21:05:15.818Z,3.80
2019-02-08T21:07:42.485Z,2.90
2019-02-08T21:10:09.242Z,2.08
2019-02-08T21:12:36.897Z,3.20
2019-02-08T21:15:09.994Z,4.70
2019-02-08T21:17:36.637Z,5.95
2019-02-08T21:20:06.901Z,2.42
2019-02-08T21:22:33.537Z,4.53
2019-02-08T21:25:00.221Z,5.60
2019-02-08T21:27:26.866Z,6.08
2019-02-08T21:29:53.543Z,4.55
2019-02-08T21:32:20.237Z,4.47
2019-02-08T21:34:46.885Z,2.70
2019-02-08T21:37:13.583Z,3.12
2019-02-08T21:39:40.222Z,2.40
2019-02-08T21:42:06.871Z,1.98
2019-02-08T21:44:33.550Z,1.87
2019-02-08T21:47:00.220Z,2.00
2019-02-08T21:49:26.894Z,2.15
2019-02-08T21:51:53.542Z,3.47
2019-02-08T21:54:20.213Z,2.17
2019-02-08T21:56:46.858Z,2.58
2019-02-08T21:59:13.531Z,1.98
2019-02-08T22:01:40.196Z,1.85
2019-02-08T22:04:06.842Z,2.80
2019-02-08T22:06:33.581Z,0.93
2019-02-08T22:09:00.608Z,1.40
2019-02-08T22:11:27.284Z,3.80
2019-02-08T22:13:55.220Z,2.17
2019-02-08T22:16:21.862Z,1.00
2019-02-08T22:18:49.333Z,1.45
2019-02-08T22:21:15.972Z,0.62
2019-02-08T22:23:42.637Z,1.25
2019-02-08T22:26:09.313Z,1.98
2019-02-08T22:28:35.958Z,0.50
2019-02-08T22:31:02.612Z,1.85
2019-02-08T22:33:29.249Z,1.25
2019-02-08T22:35:55.906Z,0.57
2019-02-08T22:38:22.586Z,0.40
2019-02-08T22:40:49.217Z,0.95
2019-02-08T22:43:15.854Z,0.88
2019-02-08T22:45:42.530Z,1.37
2019-02-08T22:48:09.185Z,2.00
2019-02-08T22:50:35.876Z,1.60
2019-02-08T22:53:03.304Z,0.85
2019-02-08T22:55:31.645Z,1.15
2019-02-08T22:57:58.334Z,0.75
2019-02-08T23:00:39.216Z,0.42
2019-02-08T23:03:13.089Z,0.88
2019-02-08T23:05:45.246Z,0.85
2019-02-08T23:08:08.251Z,0.57
2019-02-08T23:10:34.926Z,0.30
2019-02-08T23:13:01.578Z,0.90
2019-02-08T23:15:28.255Z,1.62
2019-02-08T23:17:54.898Z,1.02
2019-02-08T23:20:21.529Z,0.20
2019-02-08T23:22:48.208Z,0.60
2019-02-08T23:25:14.866Z,2.05
2019-02-08T23:27:41.544Z,1.95
2019-02-08T23:30:16.649Z,0.60
2019-02-08T23:32:43.667Z,0.85
2019-02-08T23:35:11.910Z,0.45
2019-02-08T23:37:38.890Z,2.00
2019-02-08T23:40:07.478Z,1.02
2019-02-08T23:42:34.122Z,0.82
2019-02-08T23:45:00.807Z,1.82
2019-02-08T23:47:27.453Z,1.35
2019-02-08T23:49:54.103Z,1.30
2019-02-08T23:52:20.744Z,0.30
2019-02-08T23:54:47.402Z,0.72
2019-02-08T23:57:14.086Z,0.40
2019-02-08T23:59:40.722Z,0.35
